Wrentham, Canada
Current Conditions -  °F | °C
As of 12:00 AM on Monday 22 Dec 2014 (Local Time) from CYQL Reporting Station
Clear Clear  
Wind Chill: 22°   Ceiling: Unl
Heat Index: 30°   Visibility: 9mi
Dew Point: 21°   Wind: 9mph
Humidity: 69%   Direction: 300°WNW
Pressure: 29.68"   Gusts: NA
Location:  49.52°N, 112.18°W
Report Text: CYQL 220700Z AUTO 30008KT 9SM CLR M01/M06 A2968 RMK SLP079
Loading
Personal Weather Stations






























Interactive Weather Map New forecast layout! Learn more

10-Day Weather Forecast

Advertisements
Track Severe Weather on mobile